sensor_id;sensor_type;location;lat;lon;timestamp;pressure;altitude;pressure_sealevel;temperature
15575;BMP180;7888;46.748;8.102;2023-12-20T10:29:34;94413.00;;;9.30
15575;BMP180;7888;46.748;8.102;2023-12-20T10:32:23;94412.00;;;9.30
15575;BMP180;7888;46.748;8.102;2023-12-20T10:34:50;94411.00;;;9.40
15575;BMP180;7888;46.748;8.102;2023-12-20T10:37:16;94394.00;;;9.40
15575;BMP180;7888;46.748;8.102;2023-12-20T10:39:51;94411.00;;;9.50
15575;BMP180;7888;46.748;8.102;2023-12-20T10:42:21;94390.00;;;9.50
15575;BMP180;7888;46.748;8.102;2023-12-20T10:44:48;94410.00;;;9.60
15575;BMP180;7888;46.748;8.102;2023-12-20T10:47:14;94403.00;;;9.60
15575;BMP180;7888;46.748;8.102;2023-12-20T10:49:41;94407.00;;;9.60
15575;BMP180;7888;46.748;8.102;2023-12-20T10:52:09;94396.00;;;9.70
15575;BMP180;7888;46.748;8.102;2023-12-20T10:54:34;94388.00;;;9.70
15575;BMP180;7888;46.748;8.102;2023-12-20T10:57:06;94388.00;;;9.70
15575;BMP180;7888;46.748;8.102;2023-12-20T10:59:36;94388.00;;;9.70
15575;BMP180;7888;46.748;8.102;2023-12-20T11:02:04;94372.00;;;9.80
15575;BMP180;7888;46.748;8.102;2023-12-20T11:04:59;94365.00;;;9.80
15575;BMP180;7888;46.748;8.102;2023-12-20T11:07:48;94370.00;;;9.80
15575;BMP180;7888;46.748;8.102;2023-12-20T11:10:43;94364.00;;;9.80
15575;BMP180;7888;46.748;8.102;2023-12-20T11:13:28;94360.00;;;9.80
15575;BMP180;7888;46.748;8.102;2023-12-20T11:15:56;94365.00;;;9.90
15575;BMP180;7888;46.748;8.102;2023-12-20T11:18:32;94368.00;;;9.80
15575;BMP180;7888;46.748;8.102;2023-12-20T11:21:07;94360.00;;;9.90
15575;BMP180;7888;46.748;8.102;2023-12-20T11:23:33;94350.00;;;9.90
15575;BMP180;7888;46.748;8.102;2023-12-20T11:26:01;94353.00;;;9.90
15575;BMP180;7888;46.748;8.102;2023-12-20T11:28:27;94341.00;;;9.90
15575;BMP180;7888;46.748;8.102;2023-12-20T11:30:55;94344.00;;;9.90
15575;BMP180;7888;46.748;8.102;2023-12-20T11:33:30;94335.00;;;9.90
15575;BMP180;7888;46.748;8.102;2023-12-20T11:35:58;94335.00;;;9.90
15575;BMP180;7888;46.748;8.102;2023-12-20T11:38:25;94336.00;;;10.00
15575;BMP180;7888;46.748;8.102;2023-12-20T11:40:54;94330.00;;;10.00
15575;BMP180;7888;46.748;8.102;2023-12-20T11:43:38;94333.00;;;10.00
15575;BMP180;7888;46.748;8.102;2023-12-20T11:46:09;94293.00;;;10.00
15575;BMP180;7888;46.748;8.102;2023-12-20T11:48:37;94329.00;;;10.00
15575;BMP180;7888;46.748;8.102;2023-12-20T11:51:12;94329.00;;;10.00
15575;BMP180;7888;46.748;8.102;2023-12-20T11:53:40;94332.00;;;10.00
15575;BMP180;7888;46.748;8.102;2023-12-20T11:56:06;94326.00;;;10.00
15575;BMP180;7888;46.748;8.102;2023-12-20T11:58:33;94322.00;;;10.00
15575;BMP180;7888;46.748;8.102;2023-12-20T12:00:59;94313.00;;;10.00
15575;BMP180;7888;46.748;8.102;2023-12-20T12:03:26;94322.00;;;10.00
15575;BMP180;7888;46.748;8.102;2023-12-20T12:05:51;94320.00;;;9.90
15575;BMP180;7888;46.748;8.102;2023-12-20T12:08:17;94314.00;;;10.10
15575;BMP180;7888;46.748;8.102;2023-12-20T12:10:45;94320.00;;;10.10
15575;BMP180;7888;46.748;8.102;2023-12-20T12:13:11;94313.00;;;10.10
15575;BMP180;7888;46.748;8.102;2023-12-20T12:15:37;94312.00;;;10.10
15575;BMP180;7888;46.748;8.102;2023-12-20T12:18:04;94294.00;;;10.10
15575;BMP180;7888;46.748;8.102;2023-12-20T12:20:30;94318.00;;;10.20
15575;BMP180;7888;46.748;8.102;2023-12-20T12:23:04;94295.00;;;10.20
15575;BMP180;7888;46.748;8.102;2023-12-20T12:25:34;94312.00;;;10.20
15575;BMP180;7888;46.748;8.102;2023-12-20T12:28:01;94312.00;;;10.20
15575;BMP180;7888;46.748;8.102;2023-12-20T12:30:27;94310.00;;;10.30
15575;BMP180;7888;46.748;8.102;2023-12-20T12:32:53;94314.00;;;10.30
15575;BMP180;7888;46.748;8.102;2023-12-20T12:35:20;94296.00;;;10.30
15575;BMP180;7888;46.748;8.102;2023-12-20T12:37:46;94301.00;;;10.40
15575;BMP180;7888;46.748;8.102;2023-12-20T12:40:15;94301.00;;;10.40
15575;BMP180;7888;46.748;8.102;2023-12-20T12:42:43;94268.00;;;10.40
15575;BMP180;7888;46.748;8.102;2023-12-20T12:45:10;94295.00;;;10.40
15575;BMP180;7888;46.748;8.102;2023-12-20T12:47:38;94298.00;;;10.50
15575;BMP180;7888;46.748;8.102;2023-12-20T12:50:04;94305.00;;;10.50
15575;BMP180;7888;46.748;8.102;2023-12-20T12:52:31;94298.00;;;10.50
15575;BMP180;7888;46.748;8.102;2023-12-20T12:54:57;94303.00;;;10.50
15575;BMP180;7888;46.748;8.102;2023-12-20T12:57:23;94285.00;;;10.50
15575;BMP180;7888;46.748;8.102;2023-12-20T12:59:49;94292.00;;;10.50
15575;BMP180;7888;46.748;8.102;2023-12-20T13:02:16;94300.00;;;10.50
15575;BMP180;7888;46.748;8.102;2023-12-20T13:04:42;94291.00;;;10.50
15575;BMP180;7888;46.748;8.102;2023-12-20T13:07:09;94295.00;;;10.50
15575;BMP180;7888;46.748;8.102;2023-12-20T13:09:39;94291.00;;;10.60
15575;BMP180;7888;46.748;8.102;2023-12-20T13:12:06;94290.00;;;10.60
15575;BMP180;7888;46.748;8.102;2023-12-20T13:14:34;94285.00;;;10.60
15575;BMP180;7888;46.748;8.102;2023-12-20T13:17:02;94293.00;;;10.60
15575;BMP180;7888;46.748;8.102;2023-12-20T13:19:29;94280.00;;;10.70
15575;BMP180;7888;46.748;8.102;2023-12-20T13:21:56;94295.00;;;10.70
15575;BMP180;7888;46.748;8.102;2023-12-20T13:24:21;94271.00;;;10.70
15575;BMP180;7888;46.748;8.102;2023-12-20T13:26:47;94298.00;;;10.70
15575;BMP180;7888;46.748;8.102;2023-12-20T13:29:13;94286.00;;;10.70
15575;BMP180;7888;46.748;8.102;2023-12-20T13:31:39;94307.00;;;10.70
15575;BMP180;7888;46.748;8.102;2023-12-20T13:34:06;94289.00;;;10.70
15575;BMP180;7888;46.748;8.102;2023-12-20T13:36:32;94308.00;;;10.70
15575;BMP180;7888;46.748;8.102;2023-12-20T13:38:58;94297.00;;;10.70
15575;BMP180;7888;46.748;8.102;2023-12-20T13:41:23;94308.00;;;10.70
15575;BMP180;7888;46.748;8.102;2023-12-20T13:43:49;94306.00;;;10.70
15575;BMP180;7888;46.748;8.102;2023-12-20T13:46:15;94316.00;;;10.70
15575;BMP180;7888;46.748;8.102;2023-12-20T13:48:40;94315.00;;;10.70
15575;BMP180;7888;46.748;8.102;2023-12-20T13:51:07;94323.00;;;10.80
15575;BMP180;7888;46.748;8.102;2023-12-20T13:53:33;94313.00;;;10.70
15575;BMP180;7888;46.748;8.102;2023-12-20T13:55:59;94317.00;;;10.80
15575;BMP180;7888;46.748;8.102;2023-12-20T13:58:26;94295.00;;;10.80
15575;BMP180;7888;46.748;8.102;2023-12-20T14:00:51;94313.00;;;10.80
15575;BMP180;7888;46.748;8.102;2023-12-20T14:03:17;94327.00;;;10.80
15575;BMP180;7888;46.748;8.102;2023-12-20T14:05:45;94319.00;;;10.80
15575;BMP180;7888;46.748;8.102;2023-12-20T14:08:11;94316.00;;;10.70
15575;BMP180;7888;46.748;8.102;2023-12-20T14:10:37;94325.00;;;10.70
15575;BMP180;7888;46.748;8.102;2023-12-20T14:13:04;94331.00;;;10.70
15575;BMP180;7888;46.748;8.102;2023-12-20T14:15:31;94337.00;;;10.80
15575;BMP180;7888;46.748;8.102;2023-12-20T14:18:04;94335.00;;;10.80
15575;BMP180;7888;46.748;8.102;2023-12-20T14:20:31;94333.00;;;10.80
15575;BMP180;7888;46.748;8.102;2023-12-20T14:23:03;94324.00;;;10.80
15575;BMP180;7888;46.748;8.102;2023-12-20T14:25:29;94341.00;;;10.90
15575;BMP180;7888;46.748;8.102;2023-12-20T14:27:56;94344.00;;;10.90
15575;BMP180;7888;46.748;8.102;2023-12-20T14:30:22;94329.00;;;10.90
15575;BMP180;7888;46.748;8.102;2023-12-20T14:32:48;94344.00;;;10.90
15575;BMP180;7888;46.748;8.102;2023-12-20T14:35:14;94345.00;;;10.90
15575;BMP180;7888;46.748;8.102;2023-12-20T14:37:40;94317.00;;;10.90
15575;BMP180;7888;46.748;8.102;2023-12-20T14:40:08;94335.00;;;10.90
15575;BMP180;7888;46.748;8.102;2023-12-20T14:42:41;94348.00;;;10.80
15575;BMP180;7888;46.748;8.102;2023-12-20T14:45:08;94338.00;;;10.80
15575;BMP180;7888;46.748;8.102;2023-12-20T14:47:34;94291.00;;;10.80
15575;BMP180;7888;46.748;8.102;2023-12-20T14:50:03;94328.00;;;10.80
15575;BMP180;7888;46.748;8.102;2023-12-20T14:52:30;94337.00;;;10.80
15575;BMP180;7888;46.748;8.102;2023-12-20T14:54:56;94341.00;;;10.90
15575;BMP180;7888;46.748;8.102;2023-12-20T14:57:21;94343.00;;;10.90
15575;BMP180;7888;46.748;8.102;2023-12-20T14:59:47;94339.00;;;10.90
15575;BMP180;7888;46.748;8.102;2023-12-20T15:02:13;94345.00;;;10.90
15575;BMP180;7888;46.748;8.102;2023-12-20T15:04:38;94355.00;;;10.90
15575;BMP180;7888;46.748;8.102;2023-12-20T15:07:04;94347.00;;;10.90
15575;BMP180;7888;46.748;8.102;2023-12-20T15:09:31;94349.00;;;10.90
15575;BMP180;7888;46.748;8.102;2023-12-20T15:11:57;94351.00;;;10.90
15575;BMP180;7888;46.748;8.102;2023-12-20T15:14:23;94337.00;;;10.90
15575;BMP180;7888;46.748;8.102;2023-12-20T15:16:49;94344.00;;;10.90
15575;BMP180;7888;46.748;8.102;2023-12-20T15:19:15;94338.00;;;10.90
15575;BMP180;7888;46.748;8.102;2023-12-20T15:21:41;94333.00;;;10.90
15575;BMP180;7888;46.748;8.102;2023-12-20T15:24:10;94340.00;;;10.90
15575;BMP180;7888;46.748;8.102;2023-12-20T15:26:41;94351.00;;;10.80
15575;BMP180;7888;46.748;8.102;2023-12-20T15:29:08;94324.00;;;10.70
15575;BMP180;7888;46.748;8.102;2023-12-20T15:31:46;94344.00;;;10.70
15575;BMP180;7888;46.748;8.102;2023-12-20T15:34:13;94341.00;;;10.60
15575;BMP180;7888;46.748;8.102;2023-12-20T15:36:40;94337.00;;;10.50
15575;BMP180;7888;46.748;8.102;2023-12-20T15:39:06;94323.00;;;10.50
15575;BMP180;7888;46.748;8.102;2023-12-20T15:41:34;94330.00;;;10.40
15575;BMP180;7888;46.748;8.102;2023-12-20T15:44:00;94336.00;;;10.30
15575;BMP180;7888;46.748;8.102;2023-12-20T15:46:26;94326.00;;;10.20
15575;BMP180;7888;46.748;8.102;2023-12-20T15:48:51;94332.00;;;10.20
15575;BMP180;7888;46.748;8.102;2023-12-20T15:51:21;94337.00;;;10.10
15575;BMP180;7888;46.748;8.102;2023-12-20T15:53:47;94333.00;;;10.00
15575;BMP180;7888;46.748;8.102;2023-12-20T15:56:13;94335.00;;;10.00
15575;BMP180;7888;46.748;8.102;2023-12-20T15:58:39;94340.00;;;10.00
15575;BMP180;7888;46.748;8.102;2023-12-20T16:01:05;94343.00;;;10.00
15575;BMP180;7888;46.748;8.102;2023-12-20T16:03:30;94335.00;;;9.90
15575;BMP180;7888;46.748;8.102;2023-12-20T16:05:56;94317.00;;;9.90
15575;BMP180;7888;46.748;8.102;2023-12-20T16:08:24;94308.00;;;9.90
15575;BMP180;7888;46.748;8.102;2023-12-20T16:10:50;94337.00;;;9.80
15575;BMP180;7888;46.748;8.102;2023-12-20T16:13:15;94338.00;;;9.80
15575;BMP180;7888;46.748;8.102;2023-12-20T16:15:42;94357.00;;;9.80
15575;BMP180;7888;46.748;8.102;2023-12-20T16:18:09;94338.00;;;9.80
15575;BMP180;7888;46.748;8.102;2023-12-20T16:20:37;94353.00;;;9.70
15575;BMP180;7888;46.748;8.102;2023-12-20T16:23:04;94330.00;;;9.70
15575;BMP180;7888;46.748;8.102;2023-12-20T16:25:30;94352.00;;;9.70
15575;BMP180;7888;46.748;8.102;2023-12-20T16:27:56;94353.00;;;9.70
15575;BMP180;7888;46.748;8.102;2023-12-20T16:30:22;94361.00;;;9.70
15575;BMP180;7888;46.748;8.102;2023-12-20T16:32:47;94367.00;;;9.70
15575;BMP180;7888;46.748;8.102;2023-12-20T16:35:14;94367.00;;;9.70
15575;BMP180;7888;46.748;8.102;2023-12-20T16:37:39;94355.00;;;9.70
15575;BMP180;7888;46.748;8.102;2023-12-20T16:40:07;94370.00;;;9.70
15575;BMP180;7888;46.748;8.102;2023-12-20T16:42:33;94373.00;;;9.70
15575;BMP180;7888;46.748;8.102;2023-12-20T16:44:59;94357.00;;;9.70
15575;BMP180;7888;46.748;8.102;2023-12-20T16:47:25;94375.00;;;9.70
15575;BMP180;7888;46.748;8.102;2023-12-20T16:49:50;94384.00;;;9.70
15575;BMP180;7888;46.748;8.102;2023-12-20T16:52:16;94386.00;;;9.70
15575;BMP180;7888;46.748;8.102;2023-12-20T16:54:42;94371.00;;;9.70
15575;BMP180;7888;46.748;8.102;2023-12-20T16:57:08;94392.00;;;9.70
15575;BMP180;7888;46.748;8.102;2023-12-20T16:59:33;94373.00;;;9.70
15575;BMP180;7888;46.748;8.102;2023-12-20T17:01:59;94380.00;;;9.70
15575;BMP180;7888;46.748;8.102;2023-12-20T17:04:27;94379.00;;;9.70
15575;BMP180;7888;46.748;8.102;2023-12-20T17:06:53;94364.00;;;9.60
15575;BMP180;7888;46.748;8.102;2023-12-20T17:09:19;94376.00;;;9.60
15575;BMP180;7888;46.748;8.102;2023-12-20T17:11:45;94375.00;;;9.60
15575;BMP180;7888;46.748;8.102;2023-12-20T17:14:10;94393.00;;;9.60
15575;BMP180;7888;46.748;8.102;2023-12-20T17:16:38;94392.00;;;9.50
15575;BMP180;7888;46.748;8.102;2023-12-20T17:19:05;94395.00;;;9.50
15575;BMP180;7888;46.748;8.102;2023-12-20T17:21:31;94401.00;;;9.50
15575;BMP180;7888;46.748;8.102;2023-12-20T17:23:57;94397.00;;;9.50
15575;BMP180;7888;46.748;8.102;2023-12-20T17:26:23;94414.00;;;9.50
15575;BMP180;7888;46.748;8.102;2023-12-20T17:28:48;94408.00;;;9.50
15575;BMP180;7888;46.748;8.102;2023-12-20T17:31:14;94410.00;;;9.50
15575;BMP180;7888;46.748;8.102;2023-12-20T17:33:40;94420.00;;;9.50
15575;BMP180;7888;46.748;8.102;2023-12-20T17:36:06;94434.00;;;9.50
15575;BMP180;7888;46.748;8.102;2023-12-20T17:38:32;94410.00;;;9.50
15575;BMP180;7888;46.748;8.102;2023-12-20T17:41:02;94445.00;;;9.60
15575;BMP180;7888;46.748;8.102;2023-12-20T17:43:29;94421.00;;;9.60
15575;BMP180;7888;46.748;8.102;2023-12-20T17:45:54;94429.00;;;9.60
15575;BMP180;7888;46.748;8.102;2023-12-20T17:48:20;94405.00;;;9.60
15575;BMP180;7888;46.748;8.102;2023-12-20T17:50:48;94435.00;;;9.60
15575;BMP180;7888;46.748;8.102;2023-12-20T17:53:13;94429.00;;;9.60
15575;BMP180;7888;46.748;8.102;2023-12-20T17:55:39;94418.00;;;9.60
15575;BMP180;7888;46.748;8.102;2023-12-20T17:58:05;94407.00;;;9.70
15575;BMP180;7888;46.748;8.102;2023-12-20T18:00:35;94424.00;;;9.60
15575;BMP180;7888;46.748;8.102;2023-12-20T18:03:01;94429.00;;;9.60
15575;BMP180;7888;46.748;8.102;2023-12-20T18:05:27;94428.00;;;9.70
15575;BMP180;7888;46.748;8.102;2023-12-20T18:07:53;94403.00;;;9.70
15575;BMP180;7888;46.748;8.102;2023-12-20T18:10:19;94434.00;;;9.70
15575;BMP180;7888;46.748;8.102;2023-12-20T18:12:46;94432.00;;;9.70
15575;BMP180;7888;46.748;8.102;2023-12-20T18:15:13;94387.00;;;9.70
15575;BMP180;7888;46.748;8.102;2023-12-20T18:17:40;94455.00;;;9.60
15575;BMP180;7888;46.748;8.102;2023-12-20T18:20:07;94456.00;;;9.60
15575;BMP180;7888;46.748;8.102;2023-12-20T18:22:33;94444.00;;;9.60
15575;BMP180;7888;46.748;8.102;2023-12-20T18:24:59;94451.00;;;9.70
15575;BMP180;7888;46.748;8.102;2023-12-20T18:27:25;94410.00;;;9.70
15575;BMP180;7888;46.748;8.102;2023-12-20T18:29:52;94456.00;;;9.70
15575;BMP180;7888;46.748;8.102;2023-12-20T18:32:17;94455.00;;;9.70
15575;BMP180;7888;46.748;8.102;2023-12-20T18:34:43;94450.00;;;9.70
15575;BMP180;7888;46.748;8.102;2023-12-20T18:37:09;94462.00;;;9.80
15575;BMP180;7888;46.748;8.102;2023-12-20T18:39:39;94466.00;;;9.70
15575;BMP180;7888;46.748;8.102;2023-12-20T18:42:06;94474.00;;;9.80
15575;BMP180;7888;46.748;8.102;2023-12-20T18:44:35;94473.00;;;9.80
15575;BMP180;7888;46.748;8.102;2023-12-20T18:47:01;94471.00;;;9.90
15575;BMP180;7888;46.748;8.102;2023-12-20T18:49:28;94471.00;;;9.90
15575;BMP180;7888;46.748;8.102;2023-12-20T18:51:53;94474.00;;;9.90
15575;BMP180;7888;46.748;8.102;2023-12-20T18:54:19;94472.00;;;9.90
15575;BMP180;7888;46.748;8.102;2023-12-20T18:56:46;94489.00;;;9.90
15575;BMP180;7888;46.748;8.102;2023-12-20T18:59:14;94462.00;;;9.90
15575;BMP180;7888;46.748;8.102;2023-12-20T19:01:43;94495.00;;;9.90
15575;BMP180;7888;46.748;8.102;2023-12-20T19:04:08;94491.00;;;9.90
15575;BMP180;7888;46.748;8.102;2023-12-20T19:06:34;94505.00;;;9.90
15575;BMP180;7888;46.748;8.102;2023-12-20T19:09:00;94524.00;;;9.90
15575;BMP180;7888;46.748;8.102;2023-12-20T19:11:26;94522.00;;;9.90
15575;BMP180;7888;46.748;8.102;2023-12-20T19:13:51;94521.00;;;9.90
15575;BMP180;7888;46.748;8.102;2023-12-20T19:16:17;94492.00;;;9.90
15575;BMP180;7888;46.748;8.102;2023-12-20T19:18:43;94496.00;;;9.80
15575;BMP180;7888;46.748;8.102;2023-12-20T19:21:09;94529.00;;;9.80
15575;BMP180;7888;46.748;8.102;2023-12-20T19:23:34;94522.00;;;9.80
15575;BMP180;7888;46.748;8.102;2023-12-20T19:26:01;94522.00;;;9.80
15575;BMP180;7888;46.748;8.102;2023-12-20T19:28:28;94513.00;;;9.80
15575;BMP180;7888;46.748;8.102;2023-12-20T19:30:54;94508.00;;;9.80
15575;BMP180;7888;46.748;8.102;2023-12-20T19:33:22;94509.00;;;9.80
15575;BMP180;7888;46.748;8.102;2023-12-20T19:35:48;94514.00;;;9.80
15575;BMP180;7888;46.748;8.102;2023-12-20T19:38:14;94510.00;;;9.70
15575;BMP180;7888;46.748;8.102;2023-12-20T19:40:41;94510.00;;;9.70
15575;BMP180;7888;46.748;8.102;2023-12-20T19:43:07;94515.00;;;9.70
15575;BMP180;7888;46.748;8.102;2023-12-20T19:45:34;94481.00;;;9.70
15575;BMP180;7888;46.748;8.102;2023-12-20T19:48:00;94496.00;;;9.70
15575;BMP180;7888;46.748;8.102;2023-12-20T19:50:26;94484.00;;;9.70
15575;BMP180;7888;46.748;8.102;2023-12-20T19:52:52;94506.00;;;9.70
15575;BMP180;7888;46.748;8.102;2023-12-20T19:55:18;94504.00;;;9.70
15575;BMP180;7888;46.748;8.102;2023-12-20T19:57:43;94503.00;;;9.70
15575;BMP180;7888;46.748;8.102;2023-12-20T20:00:10;94471.00;;;9.70
15575;BMP180;7888;46.748;8.102;2023-12-20T20:02:35;94472.00;;;9.80
15575;BMP180;7888;46.748;8.102;2023-12-20T20:05:04;94479.00;;;9.80
15575;BMP180;7888;46.748;8.102;2023-12-20T20:07:32;94487.00;;;9.80
15575;BMP180;7888;46.748;8.102;2023-12-20T20:09:58;94487.00;;;9.80
15575;BMP180;7888;46.748;8.102;2023-12-20T20:12:25;94507.00;;;9.80
15575;BMP180;7888;46.748;8.102;2023-12-20T20:14:50;94507.00;;;9.80
15575;BMP180;7888;46.748;8.102;2023-12-20T20:17:16;94499.00;;;9.80
15575;BMP180;7888;46.748;8.102;2023-12-20T20:19:42;94478.00;;;9.80
15575;BMP180;7888;46.748;8.102;2023-12-20T20:22:08;94489.00;;;9.90
15575;BMP180;7888;46.748;8.102;2023-12-20T20:24:34;94480.00;;;9.90
15575;BMP180;7888;46.748;8.102;2023-12-20T20:26:59;94480.00;;;9.90
15575;BMP180;7888;46.748;8.102;2023-12-20T20:29:25;94485.00;;;9.90
15575;BMP180;7888;46.748;8.102;2023-12-20T20:31:51;94475.00;;;9.90
15575;BMP180;7888;46.748;8.102;2023-12-20T20:34:17;94471.00;;;9.90
15575;BMP180;7888;46.748;8.102;2023-12-20T20:36:44;94469.00;;;9.90
15575;BMP180;7888;46.748;8.102;2023-12-20T20:39:10;94463.00;;;9.90
15575;BMP180;7888;46.748;8.102;2023-12-20T20:41:38;94465.00;;;10.00
15575;BMP180;7888;46.748;8.102;2023-12-20T20:44:04;94445.00;;;10.00
15575;BMP180;7888;46.748;8.102;2023-12-20T20:46:30;94468.00;;;10.00
15575;BMP180;7888;46.748;8.102;2023-12-20T20:48:55;94463.00;;;10.00
15575;BMP180;7888;46.748;8.102;2023-12-20T20:51:21;94479.00;;;10.00
15575;BMP180;7888;46.748;8.102;2023-12-20T20:53:47;94471.00;;;10.10
15575;BMP180;7888;46.748;8.102;2023-12-20T20:56:13;94482.00;;;10.10
15575;BMP180;7888;46.748;8.102;2023-12-20T20:58:39;94449.00;;;10.10
15575;BMP180;7888;46.748;8.102;2023-12-20T21:01:05;94455.00;;;10.10
15575;BMP180;7888;46.748;8.102;2023-12-20T21:03:31;94467.00;;;10.10
15575;BMP180;7888;46.748;8.102;2023-12-20T21:05:57;94446.00;;;10.10
15575;BMP180;7888;46.748;8.102;2023-12-20T21:08:23;94449.00;;;10.00
15575;BMP180;7888;46.748;8.102;2023-12-20T21:10:48;94464.00;;;10.00
15575;BMP180;7888;46.748;8.102;2023-12-20T21:13:15;94457.00;;;10.00
15575;BMP180;7888;46.748;8.102;2023-12-20T21:15:41;94440.00;;;10.00
15575;BMP180;7888;46.748;8.102;2023-12-20T21:18:07;94443.00;;;10.00
15575;BMP180;7888;46.748;8.102;2023-12-20T21:20:33;94447.00;;;9.90
15575;BMP180;7888;46.748;8.102;2023-12-20T21:22:58;94448.00;;;9.90
15575;BMP180;7888;46.748;8.102;2023-12-20T21:25:24;94428.00;;;9.90
15575;BMP180;7888;46.748;8.102;2023-12-20T21:27:51;94444.00;;;9.90
15575;BMP180;7888;46.748;8.102;2023-12-20T21:30:17;94447.00;;;9.90
15575;BMP180;7888;46.748;8.102;2023-12-20T21:32:43;94445.00;;;9.90
15575;BMP180;7888;46.748;8.102;2023-12-20T21:35:11;94445.00;;;9.90
15575;BMP180;7888;46.748;8.102;2023-12-20T21:37:37;94434.00;;;9.80
15575;BMP180;7888;46.748;8.102;2023-12-20T21:40:04;94442.00;;;9.80
15575;BMP180;7888;46.748;8.102;2023-12-20T21:42:31;94445.00;;;9.80
15575;BMP180;7888;46.748;8.102;2023-12-20T21:44:56;94454.00;;;9.80
15575;BMP180;7888;46.748;8.102;2023-12-20T21:47:22;94452.00;;;9.80
15575;BMP180;7888;46.748;8.102;2023-12-20T21:49:48;94434.00;;;9.80
15575;BMP180;7888;46.748;8.102;2023-12-20T21:52:14;94437.00;;;9.70
15575;BMP180;7888;46.748;8.102;2023-12-20T21:54:40;94427.00;;;9.70
15575;BMP180;7888;46.748;8.102;2023-12-20T21:57:06;94432.00;;;9.70
15575;BMP180;7888;46.748;8.102;2023-12-20T21:59:31;94441.00;;;9.70
15575;BMP180;7888;46.748;8.102;2023-12-20T22:01:57;94447.00;;;9.70
15575;BMP180;7888;46.748;8.102;2023-12-20T22:04:23;94437.00;;;9.70
15575;BMP180;7888;46.748;8.102;2023-12-20T22:06:49;94452.00;;;9.70
15575;BMP180;7888;46.748;8.102;2023-12-20T22:09:14;94436.00;;;9.60
15575;BMP180;7888;46.748;8.102;2023-12-20T22:11:40;94460.00;;;9.60
15575;BMP180;7888;46.748;8.102;2023-12-20T22:14:06;94439.00;;;9.60
15575;BMP180;7888;46.748;8.102;2023-12-20T22:16:33;94434.00;;;9.50
15575;BMP180;7888;46.748;8.102;2023-12-20T22:19:00;94458.00;;;9.40
15575;BMP180;7888;46.748;8.102;2023-12-20T22:21:26;94439.00;;;9.40
15575;BMP180;7888;46.748;8.102;2023-12-20T22:23:52;94455.00;;;9.40
15575;BMP180;7888;46.748;8.102;2023-12-20T22:26:19;94451.00;;;9.30
15575;BMP180;7888;46.748;8.102;2023-12-20T22:28:45;94425.00;;;9.30
15575;BMP180;7888;46.748;8.102;2023-12-20T22:31:10;94452.00;;;9.30
15575;BMP180;7888;46.748;8.102;2023-12-20T22:33:36;94409.00;;;9.30
15575;BMP180;7888;46.748;8.102;2023-12-20T22:36:02;94445.00;;;9.30
15575;BMP180;7888;46.748;8.102;2023-12-20T22:38:28;94434.00;;;9.30
15575;BMP180;7888;46.748;8.102;2023-12-20T22:40:56;94421.00;;;9.30
15575;BMP180;7888;46.748;8.102;2023-12-20T22:43:22;94420.00;;;9.30
15575;BMP180;7888;46.748;8.102;2023-12-20T22:45:48;94416.00;;;9.30
15575;BMP180;7888;46.748;8.102;2023-12-20T22:48:13;94404.00;;;9.30
15575;BMP180;7888;46.748;8.102;2023-12-20T22:50:39;94404.00;;;9.30
15575;BMP180;7888;46.748;8.102;2023-12-20T22:53:05;94418.00;;;9.30
15575;BMP180;7888;46.748;8.102;2023-12-20T22:55:31;94424.00;;;9.30
15575;BMP180;7888;46.748;8.102;2023-12-20T22:57:56;94422.00;;;9.30
15575;BMP180;7888;46.748;8.102;2023-12-20T23:00:22;94407.00;;;9.30
15575;BMP180;7888;46.748;8.102;2023-12-20T23:02:53;94415.00;;;9.20
15575;BMP180;7888;46.748;8.102;2023-12-20T23:05:20;94415.00;;;9.20
15575;BMP180;7888;46.748;8.102;2023-12-20T23:07:47;94386.00;;;9.20
15575;BMP180;7888;46.748;8.102;2023-12-20T23:10:13;94411.00;;;9.20
15575;BMP180;7888;46.748;8.102;2023-12-20T23:12:39;94401.00;;;9.20
15575;BMP180;7888;46.748;8.102;2023-12-20T23:15:05;94408.00;;;9.20
15575;BMP180;7888;46.748;8.102;2023-12-20T23:17:31;94416.00;;;9.20
15575;BMP180;7888;46.748;8.102;2023-12-20T23:19:57;94410.00;;;9.20
15575;BMP180;7888;46.748;8.102;2023-12-20T23:22:23;94423.00;;;9.20
15575;BMP180;7888;46.748;8.102;2023-12-20T23:24:49;94419.00;;;9.20
15575;BMP180;7888;46.748;8.102;2023-12-20T23:27:14;94416.00;;;9.20
15575;BMP180;7888;46.748;8.102;2023-12-20T23:29:40;94414.00;;;9.20
15575;BMP180;7888;46.748;8.102;2023-12-20T23:32:06;94393.00;;;9.20
15575;BMP180;7888;46.748;8.102;2023-12-20T23:34:32;94386.00;;;9.20
15575;BMP180;7888;46.748;8.102;2023-12-20T23:36:58;94377.00;;;9.20
15575;BMP180;7888;46.748;8.102;2023-12-20T23:39:24;94337.00;;;9.20
15575;BMP180;7888;46.748;8.102;2023-12-20T23:41:50;94355.00;;;9.20
15575;BMP180;7888;46.748;8.102;2023-12-20T23:44:15;94360.00;;;9.20
15575;BMP180;7888;46.748;8.102;2023-12-20T23:46:41;94356.00;;;9.20
15575;BMP180;7888;46.748;8.102;2023-12-20T23:49:07;94352.00;;;9.20
15575;BMP180;7888;46.748;8.102;2023-12-20T23:51:33;94333.00;;;9.20
15575;BMP180;7888;46.748;8.102;2023-12-20T23:53:59;94359.00;;;9.20
15575;BMP180;7888;46.748;8.102;2023-12-20T23:56:25;94362.00;;;9.20
15575;BMP180;7888;46.748;8.102;2023-12-20T23:58:51;94357.00;;;9.20
